createdAt,value
2019-05-26T00:02:19.390Z,8.97
2019-05-26T00:04:53.685Z,8.92
2019-05-26T00:07:30.646Z,8.93
2019-05-26T00:10:03.314Z,8.95
2019-05-26T00:12:37.727Z,8.90
2019-05-26T00:15:14.589Z,8.94
2019-05-26T00:17:49.731Z,8.91
2019-05-26T00:20:23.839Z,8.90
2019-05-26T00:22:59.282Z,8.90
2019-05-26T00:25:33.093Z,8.85
2019-05-26T00:28:09.963Z,8.76
2019-05-26T00:30:44.212Z,8.79
2019-05-26T00:33:17.888Z,8.66
2019-05-26T00:35:51.567Z,8.66
2019-05-26T00:38:29.241Z,8.68
2019-05-26T00:41:02.895Z,8.63
2019-05-26T00:43:36.785Z,8.61
2019-05-26T00:46:10.815Z,8.61
2019-05-26T00:48:47.089Z,8.55
2019-05-26T00:51:22.227Z,8.59
2019-05-26T00:53:57.057Z,8.63
2019-05-26T00:56:31.204Z,8.61
2019-05-26T00:59:05.586Z,8.68
2019-05-26T01:01:39.337Z,8.72
2019-05-26T01:04:13.350Z,8.69
2019-05-26T01:06:48.334Z,8.71
2019-05-26T01:09:22.046Z,8.73
2019-05-26T01:11:57.044Z,8.77
2019-05-26T01:14:32.228Z,8.80
2019-05-26T01:17:06.085Z,8.72
2019-05-26T01:19:40.070Z,8.52
2019-05-26T01:22:13.716Z,8.43
2019-05-26T01:24:47.570Z,8.34
2019-05-26T01:27:21.381Z,8.53
2019-05-26T01:29:55.279Z,8.57
2019-05-26T01:32:31.643Z,8.36
2019-05-26T01:35:07.178Z,8.26
2019-05-26T01:37:41.879Z,8.26
2019-05-26T01:40:15.738Z,8.17
2019-05-26T01:42:50.564Z,8.19
2019-05-26T01:45:24.572Z,8.28
2019-05-26T01:47:58.209Z,8.38
2019-05-26T01:50:31.982Z,8.34
2019-05-26T01:53:06.563Z,8.27
2019-05-26T01:55:41.862Z,8.35
2019-05-26T01:58:18.836Z,8.34
2019-05-26T02:00:53.055Z,8.31
2019-05-26T02:03:26.759Z,8.42
2019-05-26T02:06:01.771Z,8.35
2019-05-26T02:08:39.717Z,8.26
2019-05-26T02:11:11.454Z,8.33
2019-05-26T02:13:45.627Z,8.44
2019-05-26T02:16:19.447Z,8.33
2019-05-26T02:18:53.371Z,8.21
2019-05-26T02:21:27.202Z,8.21
2019-05-26T02:24:02.368Z,8.11
2019-05-26T02:26:37.491Z,8.09
2019-05-26T02:29:11.166Z,8.02
2019-05-26T02:31:45.094Z,7.95
2019-05-26T02:34:19.287Z,7.93
2019-05-26T02:36:53.392Z,7.96
2019-05-26T02:39:27.494Z,7.96
2019-05-26T02:42:01.828Z,7.95
2019-05-26T02:44:35.759Z,7.98
2019-05-26T02:47:10.750Z,7.93
2019-05-26T02:49:44.615Z,7.90
2019-05-26T02:52:22.208Z,7.93
2019-05-26T02:54:55.915Z,7.92
2019-05-26T02:57:29.981Z,7.89
2019-05-26T03:00:04.082Z,7.91
2019-05-26T03:02:39.559Z,8.00
2019-05-26T03:05:16.477Z,7.94
2019-05-26T03:07:54.791Z,7.95
2019-05-26T03:10:29.557Z,7.93
2019-05-26T03:13:06.024Z,7.95
2019-05-26T03:15:43.819Z,7.96
2019-05-26T03:18:18.875Z,7.96
2019-05-26T03:20:54.181Z,8.06
2019-05-26T03:23:32.300Z,8.12
2019-05-26T03:26:06.336Z,8.23
2019-05-26T03:28:42.695Z,8.42
2019-05-26T03:31:16.616Z,8.57
2019-05-26T03:33:51.366Z,8.69
2019-05-26T03:36:27.343Z,8.85
2019-05-26T03:39:02.546Z,8.89
2019-05-26T03:41:36.629Z,8.99
2019-05-26T03:44:10.468Z,9.09
2019-05-26T03:46:45.179Z,9.23
2019-05-26T03:49:18.873Z,9.24
2019-05-26T03:51:52.503Z,9.36
2019-05-26T03:54:26.250Z,9.39
2019-05-26T03:57:01.283Z,9.45
2019-05-26T03:59:35.317Z,9.65
2019-05-26T04:02:09.311Z,9.69
2019-05-26T04:04:43.330Z,9.80
2019-05-26T04:07:17.325Z,9.79
2019-05-26T04:10:03.600Z,9.82
2019-05-26T04:12:26.560Z,9.88
2019-05-26T04:15:00.302Z,9.90
2019-05-26T04:17:34.110Z,10.04
2019-05-26T04:20:09.351Z,10.11
2019-05-26T04:22:43.222Z,10.23
2019-05-26T04:25:17.185Z,10.36
2019-05-26T04:27:50.976Z,10.46
2019-05-26T04:30:25.335Z,10.49
2019-05-26T04:32:58.924Z,10.59
2019-05-26T04:35:32.714Z,10.67
2019-05-26T04:38:06.686Z,10.66
2019-05-26T04:40:41.590Z,10.85
2019-05-26T04:43:17.453Z,11.02
2019-05-26T04:45:51.318Z,11.06
2019-05-26T04:48:26.557Z,11.02
2019-05-26T04:51:02.003Z,11.24
2019-05-26T04:53:35.846Z,11.29
2019-05-26T04:56:10.130Z,11.35
2019-05-26T04:58:43.844Z,11.53
2019-05-26T05:01:18.699Z,11.71
2019-05-26T05:03:52.497Z,11.81
2019-05-26T05:06:26.200Z,11.89
2019-05-26T05:09:00.089Z,12.12
2019-05-26T05:11:33.790Z,12.18
2019-05-26T05:14:09.341Z,12.44
2019-05-26T05:16:45.004Z,12.73
2019-05-26T05:19:20.234Z,12.92
2019-05-26T05:21:54.386Z,12.97
2019-05-26T05:24:28.392Z,13.01
2019-05-26T05:27:02.073Z,13.16
2019-05-26T05:29:35.948Z,13.31
2019-05-26T05:32:09.982Z,13.40
2019-05-26T05:34:44.977Z,13.52
2019-05-26T05:37:19.969Z,13.51
2019-05-26T05:39:54.853Z,13.55
2019-05-26T05:42:28.552Z,13.74
2019-05-26T05:45:02.732Z,14.17
2019-05-26T05:47:36.421Z,14.16
2019-05-26T05:50:11.626Z,14.29
2019-05-26T05:52:46.515Z,14.52
2019-05-26T05:55:20.799Z,14.73
2019-05-26T05:57:54.800Z,15.24
2019-05-26T06:00:30.351Z,15.57
2019-05-26T06:03:04.358Z,16.47
2019-05-26T06:05:38.310Z,17.07
2019-05-26T06:08:13.230Z,17.92
2019-05-26T06:10:47.390Z,18.74
2019-05-26T06:13:21.160Z,19.18
2019-05-26T06:15:55.063Z,19.26
2019-05-26T06:18:30.811Z,19.93
2019-05-26T06:21:05.140Z,20.11
2019-05-26T06:23:39.548Z,20.17
2019-05-26T06:26:14.481Z,19.78
2019-05-26T06:28:51.965Z,20.25
2019-05-26T06:31:26.659Z,20.34
2019-05-26T06:34:00.825Z,19.95
2019-05-26T06:36:35.876Z,19.66
2019-05-26T06:39:10.154Z,18.94
2019-05-26T06:41:44.307Z,18.85
2019-05-26T06:44:18.156Z,18.42
2019-05-26T06:46:51.816Z,18.12
2019-05-26T06:49:26.996Z,17.80
2019-05-26T06:52:00.743Z,17.71
2019-05-26T06:54:35.103Z,17.82
2019-05-26T06:57:09.231Z,17.69
2019-05-26T06:59:44.685Z,17.55
2019-05-26T07:02:18.450Z,17.51
2019-05-26T07:04:52.297Z,17.52
2019-05-26T07:07:26.023Z,17.58
2019-05-26T07:10:01.243Z,17.38
2019-05-26T07:12:36.133Z,17.51
2019-05-26T07:15:12.107Z,17.65
2019-05-26T07:17:46.857Z,17.84
2019-05-26T07:20:23.769Z,17.82
2019-05-26T07:22:57.523Z,17.74
2019-05-26T07:25:34.226Z,17.74
2019-05-26T07:28:08.190Z,17.88
2019-05-26T07:30:41.948Z,17.88
2019-05-26T07:33:17.242Z,18.49
2019-05-26T07:35:50.945Z,19.11
2019-05-26T07:38:25.003Z,19.31
2019-05-26T07:40:58.671Z,19.30
2019-05-26T07:43:35.240Z,19.28
2019-05-26T07:46:08.913Z,19.66
2019-05-26T07:48:43.261Z,20.19
2019-05-26T07:51:36.330Z,20.26
2019-05-26T07:54:24.525Z,20.47
2019-05-26T07:56:45.693Z,20.48
2019-05-26T07:59:19.701Z,20.39
2019-05-26T08:01:54.718Z,20.26
2019-05-26T08:04:29.803Z,20.71
2019-05-26T08:07:03.921Z,20.91
2019-05-26T08:09:37.681Z,20.97
2019-05-26T08:12:25.976Z,20.38
2019-05-26T08:14:50.398Z,20.11
2019-05-26T08:17:24.418Z,20.25
2019-05-26T08:19:58.159Z,20.49
2019-05-26T08:22:33.042Z,20.44
2019-05-26T08:25:07.724Z,20.74
2019-05-26T08:27:41.446Z,21.44
2019-05-26T08:30:16.431Z,22.00
2019-05-26T08:32:50.135Z,21.51
2019-05-26T08:35:25.229Z,21.76
2019-05-26T08:37:58.992Z,21.85
2019-05-26T08:40:33.036Z,22.19
2019-05-26T08:43:07.338Z,22.49
2019-05-26T08:45:41.359Z,22.58
2019-05-26T08:48:15.339Z,22.79
2019-05-26T08:50:49.421Z,22.38
2019-05-26T08:53:24.381Z,21.73
2019-05-26T08:55:58.120Z,22.18
2019-05-26T08:58:32.139Z,22.17
2019-05-26T09:01:05.973Z,22.34
2019-05-26T09:03:40.298Z,22.49
2019-05-26T09:06:15.424Z,23.04
2019-05-26T09:08:49.436Z,22.88
2019-05-26T09:11:23.978Z,22.59
2019-05-26T09:13:58.366Z,23.04
2019-05-26T09:16:32.465Z,23.22
2019-05-26T09:19:08.395Z,23.19
2019-05-26T09:21:42.217Z,23.52
2019-05-26T09:24:16.428Z,23.43
2019-05-26T09:26:50.234Z,23.15
2019-05-26T09:29:24.248Z,23.55
2019-05-26T09:31:59.227Z,23.84
2019-05-26T09:34:34.132Z,24.15
2019-05-26T09:37:08.019Z,24.68
2019-05-26T09:39:41.773Z,24.69
2019-05-26T09:42:17.727Z,24.82
2019-05-26T09:44:52.951Z,24.19
2019-05-26T09:47:27.367Z,24.27
2019-05-26T09:50:03.005Z,23.84
2019-05-26T09:52:38.030Z,23.01
2019-05-26T09:55:13.865Z,23.00
2019-05-26T09:57:48.160Z,22.58
2019-05-26T10:00:22.942Z,22.30
2019-05-26T10:02:57.319Z,22.13
2019-05-26T10:05:31.167Z,21.92
2019-05-26T10:08:05.889Z,21.87
2019-05-26T10:10:40.036Z,21.73
2019-05-26T10:13:14.178Z,21.82
2019-05-26T10:15:49.177Z,21.69
2019-05-26T10:18:22.975Z,21.84
2019-05-26T10:20:56.907Z,22.30
2019-05-26T10:23:33.042Z,22.36
2019-05-26T10:26:07.077Z,22.14
2019-05-26T10:28:41.378Z,22.11
2019-05-26T10:31:15.253Z,22.10
2019-05-26T10:34:02.476Z,22.39
2019-05-26T10:36:36.764Z,22.20
2019-05-26T10:39:10.984Z,22.18
2019-05-26T10:41:45.205Z,22.17
2019-05-26T10:44:19.181Z,22.61
2019-05-26T10:46:53.808Z,22.53
2019-05-26T10:49:28.830Z,22.86
2019-05-26T10:52:02.746Z,23.07
2019-05-26T10:54:36.449Z,22.90
2019-05-26T10:57:13.715Z,23.17
2019-05-26T10:59:48.282Z,22.56
2019-05-26T11:02:22.417Z,23.01
2019-05-26T11:04:56.906Z,22.99
2019-05-26T11:07:31.689Z,22.84
2019-05-26T11:10:07.834Z,23.35
2019-05-26T11:12:41.605Z,23.59
2019-05-26T11:15:17.524Z,23.74
2019-05-26T11:17:51.390Z,23.69
2019-05-26T11:20:43.346Z,24.02
2019-05-26T11:23:17.324Z,23.65
2019-05-26T11:25:51.315Z,23.22
2019-05-26T11:28:27.842Z,23.15
2019-05-26T11:31:03.855Z,23.30
2019-05-26T11:33:39.795Z,23.45
2019-05-26T11:36:14.213Z,23.75
2019-05-26T11:38:48.881Z,22.89
2019-05-26T11:41:23.152Z,22.84
2019-05-26T11:43:56.913Z,23.17
2019-05-26T11:46:30.737Z,22.98
2019-05-26T11:49:05.173Z,22.96
2019-05-26T11:51:39.207Z,22.91
2019-05-26T11:54:13.435Z,22.91
2019-05-26T11:56:48.051Z,23.04
2019-05-26T11:59:21.972Z,23.38
2019-05-26T12:01:55.964Z,24.08
2019-05-26T12:04:31.171Z,23.88
2019-05-26T12:07:06.216Z,24.13
2019-05-26T12:09:41.143Z,23.79
2019-05-26T12:12:15.478Z,23.43
2019-05-26T12:14:49.576Z,23.22
2019-05-26T12:17:23.744Z,23.01
2019-05-26T12:19:58.951Z,22.79
2019-05-26T12:22:33.688Z,22.88
2019-05-26T12:25:08.744Z,23.39
2019-05-26T12:27:44.782Z,23.62
2019-05-26T12:30:20.162Z,23.39
2019-05-26T12:32:53.955Z,23.50
2019-05-26T12:35:44.552Z,23.59
2019-05-26T12:38:19.067Z,23.34
2019-05-26T12:40:53.326Z,23.51
2019-05-26T12:43:27.462Z,23.38
2019-05-26T12:46:02.692Z,23.55
2019-05-26T12:48:38.199Z,23.45
2019-05-26T12:51:13.582Z,23.74
2019-05-26T12:53:49.163Z,23.56
2019-05-26T12:56:24.966Z,23.42
2019-05-26T12:58:59.811Z,23.10
2019-05-26T13:01:33.755Z,23.14
2019-05-26T13:04:08.679Z,22.91
2019-05-26T13:06:42.458Z,23.27
2019-05-26T13:09:53.484Z,23.52
2019-05-26T13:12:28.526Z,23.76
2019-05-26T13:15:05.952Z,23.62
2019-05-26T13:17:39.003Z,23.64
2019-05-26T13:20:16.702Z,23.69
2019-05-26T13:22:51.573Z,23.83
2019-05-26T13:25:25.967Z,24.07
2019-05-26T13:27:59.660Z,24.57
2019-05-26T13:30:35.182Z,24.80
2019-05-26T13:33:10.037Z,24.18
2019-05-26T13:35:44.482Z,24.26
2019-05-26T13:38:20.251Z,24.32
2019-05-26T13:40:53.965Z,24.58
2019-05-26T13:43:28.858Z,24.46
2019-05-26T13:46:03.382Z,24.29
2019-05-26T13:48:37.266Z,24.55
2019-05-26T13:51:11.808Z,24.35
2019-05-26T13:53:46.231Z,24.62
2019-05-26T13:56:21.615Z,24.16
2019-05-26T13:58:55.473Z,23.94
2019-05-26T14:01:32.475Z,23.83
2019-05-26T14:04:06.794Z,24.00
2019-05-26T14:06:45.101Z,24.07
2019-05-26T14:09:18.879Z,24.23
2019-05-26T14:11:54.146Z,24.22
2019-05-26T14:14:29.751Z,24.55
2019-05-26T14:17:04.875Z,24.44
2019-05-26T14:19:40.489Z,24.17
2019-05-26T14:22:14.559Z,24.58
2019-05-26T14:24:53.746Z,24.34
2019-05-26T14:27:25.725Z,24.11
2019-05-26T14:29:59.606Z,24.32
2019-05-26T14:32:33.614Z,24.13
2019-05-26T14:35:07.616Z,24.24
2019-05-26T14:37:42.654Z,24.47
2019-05-26T14:40:17.695Z,24.32
2019-05-26T14:42:52.398Z,24.35
2019-05-26T14:45:26.458Z,24.29
2019-05-26T14:48:12.842Z,24.36
2019-05-26T14:50:46.870Z,24.43
2019-05-26T14:53:20.672Z,23.95
2019-05-26T14:55:54.350Z,23.68
2019-05-26T14:58:29.941Z,23.76
2019-05-26T15:01:03.896Z,23.89
2019-05-26T15:03:37.866Z,24.12
2019-05-26T15:06:11.563Z,24.33
2019-05-26T15:08:45.686Z,24.29
2019-05-26T15:11:19.657Z,24.38
2019-05-26T15:13:54.777Z,24.31
2019-05-26T15:16:28.441Z,24.34
2019-05-26T15:19:02.480Z,24.09
2019-05-26T15:21:36.546Z,23.90
2019-05-26T15:24:11.781Z,23.91
2019-05-26T15:26:45.646Z,23.97
2019-05-26T15:29:20.575Z,24.00
2019-05-26T15:31:54.257Z,23.50
2019-05-26T15:34:28.956Z,23.61
2019-05-26T15:37:02.681Z,23.50
2019-05-26T15:39:36.820Z,23.16
2019-05-26T15:42:13.121Z,23.17
2019-05-26T15:44:47.586Z,23.10
2019-05-26T15:47:22.906Z,23.06
2019-05-26T15:49:56.902Z,23.10
2019-05-26T15:52:30.792Z,23.20
2019-05-26T15:55:05.985Z,23.23
2019-05-26T15:57:40.318Z,23.44
2019-05-26T16:00:16.873Z,23.38
2019-05-26T16:02:50.633Z,23.32
2019-05-26T16:05:24.845Z,23.26
2019-05-26T16:08:00.147Z,23.03
2019-05-26T16:10:35.718Z,23.06
2019-05-26T16:13:09.420Z,23.17
2019-05-26T16:15:45.404Z,22.96
2019-05-26T16:18:19.242Z,23.00
2019-05-26T16:21:03.019Z,23.03
2019-05-26T16:23:30.217Z,22.93
2019-05-26T16:26:04.373Z,22.88
2019-05-26T16:28:38.599Z,22.90
2019-05-26T16:31:12.497Z,22.65
2019-05-26T16:33:47.935Z,22.57
2019-05-26T16:36:23.739Z,22.57
2019-05-26T16:38:59.105Z,22.44
2019-05-26T16:41:41.469Z,22.50
2019-05-26T16:44:15.759Z,22.26
2019-05-26T16:46:56.505Z,22.38
2019-05-26T16:49:26.878Z,22.32
2019-05-26T16:52:01.017Z,22.40
2019-05-26T16:54:35.382Z,22.44
2019-05-26T16:57:09.317Z,22.41
2019-05-26T16:59:43.781Z,22.32
2019-05-26T17:02:18.085Z,22.45
2019-05-26T17:04:52.967Z,22.42
2019-05-26T17:07:27.235Z,22.27
2019-05-26T17:10:03.530Z,22.20
2019-05-26T17:12:39.049Z,22.10
2019-05-26T17:15:16.326Z,22.09
2019-05-26T17:17:51.384Z,22.15
2019-05-26T17:20:46.895Z,22.12
2019-05-26T17:23:22.278Z,22.14
2019-05-26T17:25:56.403Z,22.09
2019-05-26T17:28:30.527Z,22.06
2019-05-26T17:31:06.580Z,22.07
2019-05-26T17:33:40.429Z,21.96
2019-05-26T17:36:14.265Z,21.76
2019-05-26T17:38:49.825Z,21.78
2019-05-26T17:41:26.080Z,21.80
2019-05-26T17:44:07.984Z,21.85
2019-05-26T17:46:52.483Z,21.86
2019-05-26T17:49:27.036Z,21.73
2019-05-26T17:52:02.009Z,21.72
2019-05-26T17:54:36.750Z,21.62
2019-05-26T17:57:12.782Z,21.61
2019-05-26T17:59:47.226Z,21.60
2019-05-26T18:02:21.506Z,21.49
2019-05-26T18:04:56.735Z,21.44
2019-05-26T18:07:33.654Z,21.38
2019-05-26T18:10:09.412Z,21.22
2019-05-26T18:12:44.893Z,21.21
2019-05-26T18:15:19.430Z,20.94
2019-05-26T18:17:59.786Z,20.86
2019-05-26T18:20:33.982Z,20.83
2019-05-26T18:23:11.529Z,20.73
2019-05-26T18:25:46.742Z,20.86
2019-05-26T18:28:22.026Z,20.63
2019-05-26T18:30:56.894Z,20.68
2019-05-26T18:33:32.976Z,20.75
2019-05-26T18:36:06.644Z,20.55
2019-05-26T18:38:42.269Z,20.55
2019-05-26T18:41:15.978Z,20.55
2019-05-26T18:43:51.436Z,20.52
2019-05-26T18:46:25.688Z,20.43
2019-05-26T18:48:59.444Z,20.45
2019-05-26T18:51:33.708Z,20.44
2019-05-26T18:54:10.647Z,20.36
2019-05-26T18:56:44.832Z,20.25
2019-05-26T18:59:23.772Z,20.35
2019-05-26T19:02:01.300Z,20.24
2019-05-26T19:04:46.749Z,20.20
2019-05-26T19:07:26.623Z,20.16
2019-05-26T19:10:01.168Z,20.11
2019-05-26T19:12:36.166Z,20.09
2019-05-26T19:15:10.799Z,20.15
2019-05-26T19:17:49.993Z,20.10
2019-05-26T19:20:24.792Z,19.95
2019-05-26T19:23:00.042Z,20.01
2019-05-26T19:25:37.186Z,20.00
2019-05-26T19:28:12.221Z,19.84
2019-05-26T19:30:46.183Z,19.90
2019-05-26T19:33:21.770Z,19.87
2019-05-26T19:35:57.225Z,19.85
2019-05-26T19:38:32.597Z,19.89
2019-05-26T19:41:09.960Z,19.94
2019-05-26T19:43:44.473Z,19.78
2019-05-26T19:46:18.602Z,19.84
2019-05-26T19:48:52.240Z,19.83
2019-05-26T19:51:28.232Z,19.79
2019-05-26T19:54:02.771Z,19.58
2019-05-26T19:56:37.141Z,19.60
2019-05-26T19:59:11.344Z,19.69
2019-05-26T20:01:45.331Z,19.70
2019-05-26T20:04:19.301Z,19.64
2019-05-26T20:06:53.865Z,19.53
2019-05-26T20:09:28.191Z,19.51
2019-05-26T20:12:03.440Z,19.48
2019-05-26T20:14:37.854Z,19.47
2019-05-26T20:17:12.018Z,19.45
2019-05-26T20:19:46.183Z,19.41
2019-05-26T20:22:24.165Z,19.45
2019-05-26T20:24:56.169Z,19.45
2019-05-26T20:27:30.966Z,19.48
2019-05-26T20:30:05.581Z,19.46
2019-05-26T20:32:39.544Z,19.31
2019-05-26T20:35:15.118Z,19.18
2019-05-26T20:37:49.207Z,19.19
2019-05-26T20:40:24.619Z,19.15
2019-05-26T20:42:59.657Z,19.10
2019-05-26T20:45:33.807Z,19.20
2019-05-26T20:48:08.914Z,19.33
2019-05-26T20:50:43.044Z,19.29
2019-05-26T20:53:18.066Z,19.20
2019-05-26T20:55:53.614Z,19.27
2019-05-26T20:58:28.876Z,19.15
2019-05-26T21:01:02.571Z,19.08
2019-05-26T21:03:36.521Z,19.10
2019-05-26T21:06:10.375Z,19.08
2019-05-26T21:08:45.264Z,19.05
2019-05-26T21:11:20.104Z,19.10
2019-05-26T21:13:55.701Z,19.09
2019-05-26T21:16:29.396Z,19.08
2019-05-26T21:19:03.274Z,18.97
2019-05-26T21:21:37.447Z,18.92
2019-05-26T21:24:11.704Z,18.91
2019-05-26T21:26:48.720Z,18.96
2019-05-26T21:29:32.134Z,18.94
2019-05-26T21:32:06.933Z,18.88
2019-05-26T21:34:40.664Z,18.94
2019-05-26T21:37:14.497Z,18.80
2019-05-26T21:39:48.467Z,18.76
2019-05-26T21:42:25.280Z,18.84
2019-05-26T21:44:59.050Z,18.82
2019-05-26T21:47:33.110Z,18.72
2019-05-26T21:50:09.436Z,18.76
2019-05-26T21:52:44.342Z,18.79
2019-05-26T21:55:18.150Z,18.76
2019-05-26T21:57:52.124Z,18.72
2019-05-26T22:00:30.946Z,18.75
2019-05-26T22:03:04.858Z,18.72
2019-05-26T22:05:38.784Z,18.63
2019-05-26T22:08:12.935Z,18.58
2019-05-26T22:10:46.948Z,18.67
2019-05-26T22:13:21.001Z,18.62
2019-05-26T22:15:56.059Z,18.55
2019-05-26T22:18:30.945Z,18.66
2019-05-26T22:21:05.473Z,18.62
2019-05-26T22:23:39.112Z,18.61
2019-05-26T22:26:13.630Z,18.52
2019-05-26T22:28:47.724Z,18.53
2019-05-26T22:31:24.521Z,18.73
2019-05-26T22:33:58.189Z,18.59
2019-05-26T22:36:32.433Z,18.62
2019-05-26T22:39:07.942Z,18.57
2019-05-26T22:41:43.341Z,18.50
2019-05-26T22:44:16.985Z,18.47
2019-05-26T22:50:43.455Z,18.48
2019-05-26T22:53:17.168Z,18.52
2019-05-26T22:55:50.698Z,18.61
2019-05-26T22:58:25.802Z,18.65
2019-05-26T23:00:59.824Z,18.56
2019-05-26T23:03:33.451Z,18.53
2019-05-26T23:06:07.771Z,18.59
2019-05-26T23:08:42.213Z,18.62
2019-05-26T23:11:15.926Z,18.63
2019-05-26T23:13:49.605Z,18.59
2019-05-26T23:16:23.285Z,18.56
2019-05-26T23:18:58.373Z,18.54
2019-05-26T23:21:34.580Z,18.54
2019-05-26T23:24:08.818Z,18.54
2019-05-26T23:26:42.609Z,18.51
2019-05-26T23:29:19.183Z,18.42
2019-05-26T23:31:56.463Z,18.32
2019-05-26T23:34:31.311Z,18.26
2019-05-26T23:37:06.894Z,18.16
2019-05-26T23:39:40.671Z,18.18
2019-05-26T23:42:15.524Z,18.08
2019-05-26T23:44:49.393Z,18.04
2019-05-26T23:47:23.059Z,18.06
2019-05-26T23:49:58.252Z,18.04
2019-05-26T23:52:32.269Z,18.04
2019-05-26T23:55:07.589Z,18.08
2019-05-26T23:57:42.762Z,18.06
